Time;durP1;ratioP1;P1;durP2;ratioP2;P2;SDS_P1;SDS_P2;PMS_P1;PMS_P2;Temp;Humidity;BMP_temperature;BMP_pressure;BME280_temperature;BME280_humidity;BME280_pressure;Samples;Min_cycle;Max_cycle;Signal;HPM_P1;HPM_P2
2023/09/29 00:00:52;;;;;;;;;;;;;;;;;;5093169;28;19991;-70
2023/09/29 00:03:19;;;;;;;;;;;;;;;;;;5092698;28;19993;-71
2023/09/29 00:05:46;;;;;;;;;;;;;;;;;;5091882;28;19923;-71
2023/09/29 00:08:16;;;;;;;;;;;;;;;;;;5092626;28;20023;-71
2023/09/29 00:10:45;;;;;;;;;;;;;;;;;;5093231;28;20022;-72
2023/09/29 00:13:12;;;;;;;;;;;;;;;;;;5092890;28;19925;-71
2023/09/29 00:15:39;;;;;;;;;;;;;;;;;;5092909;28;19927;-71
2023/09/29 00:18:07;;;;;;;;;;;;;;;;;;5093661;28;19924;-70
2023/09/29 00:20:34;;;;;;;;;;;;;;;;;;5091488;28;19930;-71
2023/09/29 00:23:01;;;;;;;;;;;;;;;;;;5092743;28;19924;-71
2023/09/29 00:25:30;;;;;;;;;;;;;;;;;;5091859;28;20066;-71
2023/09/29 00:28:00;;;;;;;;;;;;;;;;;;5092660;28;19928;-72
2023/09/29 00:30:27;;;;;;;;;;;;;;;;;;5092473;28;20014;-71
2023/09/29 00:32:54;;;;;;;;;;;;;;;;;;5092849;28;19947;-71
2023/09/29 00:35:27;;;;;;;;;;;;;;;;;;5092280;28;19977;-71
2023/09/29 00:37:54;;;;;;;;;;;;;;;;;;5093226;28;19924;-71
2023/09/29 00:40:21;;;;;;;;;;;;;;;;;;5092514;28;19924;-71
2023/09/29 00:42:48;;;;;;;;;;;;;;;;;;5092601;28;19938;-71
2023/09/29 00:45:19;;;;;;;;;;;;;;;;;;5090906;28;19967;-71
2023/09/29 00:47:48;;;;;;;;;;;;;;;;;;5092947;28;19924;-71
2023/09/29 00:50:15;;;;;;;;;;;;;;;;;;5091514;28;19924;-70
2023/09/29 00:52:42;;;;;;;;;;;;;;;;;;5092649;28;19928;-71
2023/09/29 00:55:11;;;;;;;;;;;;;;;;;;5092197;28;20383;-71
2023/09/29 00:57:38;;;;;;;;;;;;;;;;;;5092209;28;20291;-71
2023/09/29 01:00:23;;;;;;;;;;;;;;;;;;5092576;28;19970;-71
2023/09/29 01:02:52;;;;;;;;;;;;;;;;;;5091618;28;19967;-71
2023/09/29 01:05:20;;;;;;;;;;;;;;;;;;5091394;28;19984;-71
2023/09/29 01:07:47;;;;;;;;;;;;;;;;;;5094522;28;19924;-71
2023/09/29 01:10:14;;;;;;;;;;;;;;;;;;5096081;28;20536;-71
2023/09/29 01:12:41;;;;;;;;;;;;;;;;;;5094427;28;20302;-71
2023/09/29 01:15:12;;;;;;;;;;;;;;;;;;5092846;28;19924;-71
2023/09/29 01:17:39;;;;;;;;;;;;;;;;;;5088072;28;20334;-71
2023/09/29 01:20:12;;;;;;;;;;;;;;;;;;5090463;28;19978;-71
2023/09/29 01:22:39;;;;;;;;;;;;;;;;;;5090421;28;19931;-71
2023/09/29 01:25:06;;;;;;;;;;;;;;;;;;5092589;28;20370;-71
2023/09/29 01:27:34;;;;;;;;;;;;;;;;;;5091892;28;19977;-71
2023/09/29 01:30:03;;;;;;;;;;;;;;;;;;5091573;28;19927;-71
2023/09/29 01:32:30;;;;;;;;;;;;;;;;;;5072429;28;20298;-71
2023/09/29 01:34:57;;;;;;;;;;;;;;;;;;5079130;28;19924;-71
2023/09/29 01:37:25;;;;;;;;;;;;;;;;;;5090826;28;20386;-71
2023/09/29 01:39:52;;;;;;;;;;;;;;;;;;5091605;28;19935;-71
2023/09/29 01:42:19;;;;;;;;;;;;;;;;;;5090510;28;19928;-71
2023/09/29 01:44:46;;;;;;;;;;;;;;;;;;5092237;28;19946;-71
2023/09/29 01:47:13;;;;;;;;;;;;;;;;;;5091925;28;19955;-71
2023/09/29 01:49:40;;;;;;;;;;;;;;;;;;5091415;28;20329;-71
2023/09/29 01:52:08;;;;;;;;;;;;;;;;;;5090680;28;19977;-70
2023/09/29 01:54:36;;;;;;;;;;;;;;;;;;5091693;28;19928;-71
2023/09/29 01:57:04;;;;;;;;;;;;;;;;;;5090128;28;19924;-71
2023/09/29 01:59:31;;;;;;;;;;;;;;;;;;5072119;28;19928;-71
2023/09/29 02:01:58;;;;;;;;;;;;;;;;;;5071676;28;19990;-71
2023/09/29 02:04:25;;;;;;;;;;;;;;;;;;5075050;28;19925;-71
2023/09/29 02:06:53;;;;;;;;;;;;;;;;;;5091300;28;19925;-71
2023/09/29 02:09:20;;;;;;;;;;;;;;;;;;5090143;28;19950;-71
2023/09/29 02:11:48;;;;;;;;;;;;;;;;;;5091822;28;19977;-71
2023/09/29 02:14:15;;;;;;;;;;;;;;;;;;5090183;28;20390;-71
2023/09/29 02:16:42;;;;;;;;;;;;;;;;;;5091860;28;19924;-71
2023/09/29 02:19:10;;;;;;;;;;;;;;;;;;5091366;28;20284;-71
2023/09/29 02:21:37;;;;;;;;;;;;;;;;;;5090954;28;19989;-71
2023/09/29 02:24:04;;;;;;;;;;;;;;;;;;5091289;28;20375;-71
2023/09/29 02:26:32;;;;;;;;;;;;;;;;;;5091915;28;19928;-71
2023/09/29 02:28:58;;;;;;;;;;;;;;;;;;5091122;28;19924;-71
2023/09/29 02:31:26;;;;;;;;;;;;;;;;;;5092933;28;20013;-71
2023/09/29 02:33:53;;;;;;;;;;;;;;;;;;5094487;28;19924;-71
2023/09/29 02:36:20;;;;;;;;;;;;;;;;;;5094482;28;20374;-72
2023/09/29 02:38:47;;;;;;;;;;;;;;;;;;5092685;28;19924;-72
2023/09/29 02:41:14;;;;;;;;;;;;;;;;;;5092565;28;20038;-71
2023/09/29 02:43:41;;;;;;;;;;;;;;;;;;5095495;28;19977;-71
2023/09/29 02:46:08;;;;;;;;;;;;;;;;;;5075493;28;19925;-71
2023/09/29 02:48:35;;;;;;;;;;;;;;;;;;5092759;28;19924;-71
2023/09/29 02:51:02;;;;;;;;;;;;;;;;;;5093824;28;19947;-71
2023/09/29 02:53:29;;;;;;;;;;;;;;;;;;5095490;28;19930;-71
2023/09/29 02:55:56;;;;;;;;;;;;;;;;;;5095773;28;20686;-71
2023/09/29 02:58:23;;;;;;;;;;;;;;;;;;5094817;28;19928;-71
2023/09/29 03:00:51;;;;;;;;;;;;;;;;;;5093983;28;19924;-71
2023/09/29 03:03:19;;;;;;;;;;;;;;;;;;5094407;28;19931;-71
2023/09/29 03:05:47;;;;;;;;;;;;;;;;;;5094313;28;19976;-72
2023/09/29 03:08:14;;;;;;;;;;;;;;;;;;5093937;28;19932;-72
2023/09/29 03:10:43;;;;;;;;;;;;;;;;;;5090181;28;19931;-72
2023/09/29 03:13:11;;;;;;;;;;;;;;;;;;5094895;28;19931;-71
2023/09/29 03:15:38;;;;;;;;;;;;;;;;;;5094874;28;19924;-72
2023/09/29 03:18:05;;;;;;;;;;;;;;;;;;5094112;28;19947;-71
2023/09/29 03:20:32;;;;;;;;;;;;;;;;;;5094196;28;19924;-71
2023/09/29 03:23:00;;;;;;;;;;;;;;;;;;5094693;28;20379;-72
2023/09/29 03:25:27;;;;;;;;;;;;;;;;;;5094650;28;19927;-72
2023/09/29 03:27:54;;;;;;;;;;;;;;;;;;5093340;28;19928;-72
2023/09/29 03:30:21;;;;;;;;;;;;;;;;;;5093318;28;20443;-72
2023/09/29 03:32:48;;;;;;;;;;;;;;;;;;5094695;28;19977;-72
2023/09/29 03:35:15;;;;;;;;;;;;;;;;;;5092565;28;19924;-71
2023/09/29 03:37:44;;;;;;;;;;;;;;;;;;5092856;28;19977;-72
2023/09/29 03:40:14;;;;;;;;;;;;;;;;;;5093890;28;19967;-71
2023/09/29 03:42:42;;;;;;;;;;;;;;;;;;5092738;28;20386;-72
2023/09/29 03:45:11;;;;;;;;;;;;;;;;;;5093841;28;19966;-71
2023/09/29 03:47:38;;;;;;;;;;;;;;;;;;5093838;28;19977;-71
2023/09/29 03:50:05;;;;;;;;;;;;;;;;;;5092989;28;19970;-71
2023/09/29 03:52:33;;;;;;;;;;;;;;;;;;5090205;28;19924;-71
2023/09/29 03:55:00;;;;;;;;;;;;;;;;;;5092627;28;20350;-70
2023/09/29 03:57:27;;;;;;;;;;;;;;;;;;5093013;28;19935;-72
2023/09/29 03:59:54;;;;;;;;;;;;;;;;;;5093240;28;19928;-72
2023/09/29 04:02:21;;;;;;;;;;;;;;;;;;5092746;28;19924;-72
2023/09/29 04:04:48;;;;;;;;;;;;;;;;;;5093979;28;19977;-72
2023/09/29 04:07:15;;;;;;;;;;;;;;;;;;5092624;28;20394;-72
2023/09/29 04:09:42;;;;;;;;;;;;;;;;;;5092211;28;20003;-72
2023/09/29 04:12:10;;;;;;;;;;;;;;;;;;5092791;28;19985;-72
2023/09/29 04:14:37;;;;;;;;;;;;;;;;;;5092221;28;20012;-72
2023/09/29 04:17:05;;;;;;;;;;;;;;;;;;5092173;28;19930;-72
2023/09/29 04:19:32;;;;;;;;;;;;;;;;;;5092603;28;19930;-72
2023/09/29 04:21:59;;;;;;;;;;;;;;;;;;5092793;28;20383;-72
2023/09/29 04:24:27;;;;;;;;;;;;;;;;;;5093552;28;19924;-72
2023/09/29 04:26:54;;;;;;;;;;;;;;;;;;5093109;28;20374;-73
2023/09/29 04:29:21;;;;;;;;;;;;;;;;;;5092126;28;19928;-72
2023/09/29 04:31:48;;;;;;;;;;;;;;;;;;5090928;28;20468;-72
2023/09/29 04:34:15;;;;;;;;;;;;;;;;;;5092629;28;19928;-72
2023/09/29 04:36:42;;;;;;;;;;;;;;;;;;5092584;28;19924;-73
2023/09/29 04:39:09;;;;;;;;;;;;;;;;;;5092362;28;19924;-73
2023/09/29 04:41:37;;;;;;;;;;;;;;;;;;5091993;28;20010;-73
2023/09/29 04:44:05;;;;;;;;;;;;;;;;;;5094967;28;20118;-72
2023/09/29 04:46:33;;;;;;;;;;;;;;;;;;5096142;28;20337;-73
2023/09/29 04:49:03;;;;;;;;;;;;;;;;;;5095451;28;20310;-73
2023/09/29 04:51:30;;;;;;;;;;;;;;;;;;5091607;28;20007;-75
2023/09/29 04:53:57;;;;;;;;;;;;;;;;;;5091197;28;20399;-76
2023/09/29 04:56:24;;;;;;;;;;;;;;;;;;5092435;28;19978;-75
2023/09/29 04:58:51;;;;;;;;;;;;;;;;;;5082619;28;20039;-74
2023/09/29 05:01:18;;;;;;;;;;;;;;;;;;5089470;28;19928;-74
2023/09/29 05:03:47;;;;;;;;;;;;;;;;;;5088025;28;19932;-75
2023/09/29 05:06:14;;;;;;;;;;;;;;;;;;5088323;28;20391;-75
2023/09/29 05:08:41;;;;;;;;;;;;;;;;;;5089459;28;19924;-72
2023/09/29 05:11:08;;;;;;;;;;;;;;;;;;5089529;28;19924;-75
2023/09/29 05:13:35;;;;;;;;;;;;;;;;;;5088751;28;19928;-75
2023/09/29 05:16:02;;;;;;;;;;;;;;;;;;5087498;28;20341;-75
2023/09/29 05:18:29;;;;;;;;;;;;;;;;;;5085209;28;19978;-75
2023/09/29 05:20:56;;;;;;;;;;;;;;;;;;5090838;28;20037;-75
2023/09/29 05:23:23;;;;;;;;;;;;;;;;;;5089842;28;19977;-73
2023/09/29 05:25:50;;;;;;;;;;;;;;;;;;5091365;28;19924;-74
2023/09/29 05:28:17;;;;;;;;;;;;;;;;;;5087437;28;19969;-77
2023/09/29 05:30:44;;;;;;;;;;;;;;;;;;5089368;28;19964;-76
2023/09/29 05:33:11;;;;;;;;;;;;;;;;;;5091877;28;19978;-77
2023/09/29 05:35:38;;;;;;;;;;;;;;;;;;5088328;28;20344;-75
2023/09/29 05:38:05;;;;;;;;;;;;;;;;;;5090900;28;19932;-75
2023/09/29 05:40:32;;;;;;;;;;;;;;;;;;5085667;28;20445;-76
2023/09/29 05:42:59;;;;;;;;;;;;;;;;;;5082214;28;19936;-76
2023/09/29 05:45:26;;;;;;;;;;;;;;;;;;5086771;28;19963;-76
2023/09/29 05:47:53;;;;;;;;;;;;;;;;;;5087804;28;19977;-76
2023/09/29 05:50:20;;;;;;;;;;;;;;;;;;5090082;28;19963;-75
2023/09/29 05:52:48;;;;;;;;;;;;;;;;;;5085761;28;19928;-77
2023/09/29 05:55:15;;;;;;;;;;;;;;;;;;5086240;28;19928;-76
2023/09/29 05:57:42;;;;;;;;;;;;;;;;;;5089970;28;19981;-75
2023/09/29 06:00:13;;;;;;;;;;;;;;;;;;5086802;28;19932;-75
2023/09/29 06:02:40;;;;;;;;;;;;;;;;;;5088088;28;19928;-75
2023/09/29 06:05:07;;;;;;;;;;;;;;;;;;5111232;22;19975;-75
2023/09/29 06:07:34;;;;;;;;;;;;;;;;;;5084107;28;19928;-74
2023/09/29 06:10:01;;;;;;;;;;;;;;;;;;5076311;28;19924;-72
2023/09/29 06:12:28;;;;;;;;;;;;;;;;;;5085509;28;19924;-76
2023/09/29 06:14:55;;;;;;;;;;;;;;;;;;5081931;28;19928;-76
2023/09/29 06:17:22;;;;;;;;;;;;;;;;;;5080033;28;20026;-75
2023/09/29 06:19:49;;;;;;;;;;;;;;;;;;5080116;28;19993;-76
2023/09/29 06:22:16;;;;;;;;;;;;;;;;;;5079849;28;20047;-75
2023/09/29 06:24:44;;;;;;;;;;;;;;;;;;5076030;28;19963;-75
2023/09/29 06:27:11;;;;;;;;;;;;;;;;;;5085726;28;19923;-76
2023/09/29 06:29:39;;;;;;;;;;;;;;;;;;5081887;28;20031;-76
2023/09/29 06:32:06;;;;;;;;;;;;;;;;;;5077583;28;19934;-75
2023/09/29 06:34:33;;;;;;;;;;;;;;;;;;5083062;28;19932;-76
2023/09/29 06:37:00;;;;;;;;;;;;;;;;;;5078972;28;19928;-76
2023/09/29 06:39:27;;;;;;;;;;;;;;;;;;5079469;28;19985;-75
2023/09/29 06:41:54;;;;;;;;;;;;;;;;;;5074780;28;19960;-75
2023/09/29 06:44:21;;;;;;;;;;;;;;;;;;5077851;28;19959;-75
2023/09/29 06:46:48;;;;;;;;;;;;;;;;;;5083402;28;19993;-75
2023/09/29 06:49:15;;;;;;;;;;;;;;;;;;5091729;28;19925;-74
2023/09/29 06:51:42;;;;;;;;;;;;;;;;;;5085895;28;20019;-74
2023/09/29 06:54:10;;;;;;;;;;;;;;;;;;5084800;28;20395;-74
2023/09/29 06:56:37;;;;;;;;;;;;;;;;;;5075746;28;19924;-74
2023/09/29 06:59:05;;;;;;;;;;;;;;;;;;5085005;28;19924;-74
2023/09/29 07:01:32;;;;;;;;;;;;;;;;;;5092874;28;19931;-74
2023/09/29 07:03:59;;;;;;;;;;;;;;;;;;5090860;28;19958;-75
2023/09/29 07:06:26;;;;;;;;;;;;;;;;;;5085368;28;19925;-76
2023/09/29 07:08:53;;;;;;;;;;;;;;;;;;5091925;28;19924;-76
2023/09/29 07:11:21;;;;;;;;;;;;;;;;;;5073947;28;20020;-74
2023/09/29 07:13:48;;;;;;;;;;;;;;;;;;5076290;28;19928;-76
2023/09/29 07:16:17;;;;;;;;;;;;;;;;;;5093842;28;19956;-75
2023/09/29 07:18:44;;;;;;;;;;;;;;;;;;5088474;28;20307;-75
2023/09/29 07:21:11;;;;;;;;;;;;;;;;;;5074457;28;19936;-75
2023/09/29 07:23:38;;;;;;;;;;;;;;;;;;5075096;28;20053;-75
2023/09/29 07:26:06;;;;;;;;;;;;;;;;;;5081364;28;19978;-75
2023/09/29 07:28:33;;;;;;;;;;;;;;;;;;5077437;28;19966;-75
2023/09/29 07:31:00;;;;;;;;;;;;;;;;;;5082589;28;19931;-75
2023/09/29 07:33:27;;;;;;;;;;;;;;;;;;5076805;28;19981;-76
2023/09/29 07:35:54;;;;;;;;;;;;;;;;;;5073212;28;19970;-75
2023/09/29 07:38:21;;;;;;;;;;;;;;;;;;5073278;28;20307;-75
2023/09/29 07:40:48;;;;;;;;;;;;;;;;;;5084714;28;19928;-75
2023/09/29 07:43:15;;;;;;;;;;;;;;;;;;5092300;28;19932;-75
2023/09/29 07:45:42;;;;;;;;;;;;;;;;;;5082481;28;20286;-79
2023/09/29 07:48:09;;;;;;;;;;;;;;;;;;5091139;28;19985;-79
2023/09/29 07:50:36;;;;;;;;;;;;;;;;;;5075983;28;20334;-78
2023/09/29 07:53:04;;;;;;;;;;;;;;;;;;5092653;28;19939;-78
2023/09/29 07:55:31;;;;;;;;;;;;;;;;;;5092860;28;19928;-78
2023/09/29 07:57:58;;;;;;;;;;;;;;;;;;5082139;28;19942;-79
2023/09/29 08:00:25;;;;;;;;;;;;;;;;;;5090240;28;19931;-79
2023/09/29 08:02:52;;;;;;;;;;;;;;;;;;5086237;28;19969;-79
2023/09/29 08:05:19;;;;;;;;;;;;;;;;;;5084530;28;19925;-79
2023/09/29 08:07:46;;;;;;;;;;;;;;;;;;5082536;28;19935;-78
2023/09/29 08:10:14;;;;;;;;;;;;;;;;;;5082697;28;19978;-78
2023/09/29 08:12:41;;;;;;;;;;;;;;;;;;5085406;28;19984;-78
2023/09/29 08:15:10;;;;;;;;;;;;;;;;;;5093126;28;19979;-78
2023/09/29 08:17:37;;;;;;;;;;;;;;;;;;5077878;28;19935;-78
2023/09/29 08:20:05;;;;;;;;;;;;;;;;;;5082717;28;19993;-79
2023/09/29 08:22:32;;;;;;;;;;;;;;;;;;5082187;28;19932;-78
2023/09/29 08:25:01;;;;;;;;;;;;;;;;;;5085770;28;20394;-79
2023/09/29 08:27:28;;;;;;;;;;;;;;;;;;5094783;28;19924;-79
2023/09/29 08:29:55;;;;;;;;;;;;;;;;;;5081258;28;19928;-78
2023/09/29 08:32:22;;;;;;;;;;;;;;;;;;5093842;28;19928;-78
2023/09/29 08:34:49;;;;;;;;;;;;;;;;;;5086098;28;19925;-78
2023/09/29 08:37:16;;;;;;;;;;;;;;;;;;5093345;28;20375;-78
2023/09/29 08:39:43;;;;;;;;;;;;;;;;;;5087455;28;19931;-64
2023/09/29 08:42:10;;;;;;;;;;;;;;;;;;5091492;28;19924;-78
2023/09/29 08:44:37;;;;;;;;;;;;;;;;;;5085105;28;19946;-78
2023/09/29 08:47:05;;;;;;;;;;;;;;;;;;5083936;28;20375;-78
2023/09/29 08:49:32;;;;;;;;;;;;;;;;;;5076541;28;19996;-80
2023/09/29 08:51:59;;;;;;;;;;;;;;;;;;5084944;28;19928;-78
2023/09/29 08:54:26;;;;;;;;;;;;;;;;;;5080792;28;19936;-76
2023/09/29 08:56:53;;;;;;;;;;;;;;;;;;5072690;28;20010;-76
2023/09/29 08:59:20;;;;;;;;;;;;;;;;;;5079180;28;19924;-76
2023/09/29 09:01:48;;;;;;;;;;;;;;;;;;5086476;28;19931;-76
2023/09/29 09:04:15;;;;;;;;;;;;;;;;;;5077804;28;20307;-75
2023/09/29 09:06:43;;;;;;;;;;;;;;;;;;5078068;28;19928;-76
2023/09/29 09:09:10;;;;;;;;;;;;;;;;;;5091950;28;19925;-75
2023/09/29 09:11:37;;;;;;;;;;;;;;;;;;5077215;28;19924;-75
2023/09/29 09:14:04;;;;;;;;;;;;;;;;;;5078092;28;19925;-77
2023/09/29 09:16:32;;;;;;;;;;;;;;;;;;5076778;28;19928;-75
2023/09/29 09:18:59;;;;;;;;;;;;;;;;;;5091470;28;19924;-75
2023/09/29 09:21:26;;;;;;;;;;;;;;;;;;5076666;28;19929;-74
2023/09/29 09:23:53;;;;;;;;;;;;;;;;;;5072424;28;19924;-74
2023/09/29 09:26:20;;;;;;;;;;;;;;;;;;5071827;28;19929;-74
2023/09/29 09:28:47;;;;;;;;;;;;;;;;;;5087273;28;19963;-74
2023/09/29 09:31:14;;;;;;;;;;;;;;;;;;5076629;28;20013;-68
2023/09/29 09:33:41;;;;;;;;;;;;;;;;;;5074801;28;20342;-67
2023/09/29 09:36:09;;;;;;;;;;;;;;;;;;5074001;28;19978;-75
2023/09/29 09:38:36;;;;;;;;;;;;;;;;;;5082431;28;19932;-75
2023/09/29 09:41:03;;;;;;;;;;;;;;;;;;5071401;28;20018;-74
2023/09/29 09:43:34;;;;;;;;;;;;;;;;;;5078244;28;19924;-73
2023/09/29 09:46:04;;;;;;;;;;;;;;;;;;5091783;28;19932;-74
2023/09/29 09:48:35;;;;;;;;;;;;;;;;;;5083425;28;19924;-74
2023/09/29 09:51:03;;;;;;;;;;;;;;;;;;5072183;28;19924;-75
2023/09/29 09:53:29;;;;;;;;;;;;;;;;;;5081289;28;19925;-82
2023/09/29 09:55:57;;;;;;;;;;;;;;;;;;5083359;28;19924;-82
2023/09/29 09:58:24;;;;;;;;;;;;;;;;;;5077400;28;19925;-83
2023/09/29 10:00:54;;;;;;;;;;;;;;;;;;5091117;28;19924;-82
2023/09/29 10:03:21;;;;;;;;;;;;;;;;;;5074348;28;19925;-80
2023/09/29 10:05:52;;;;;;;;;;;;;;;;;;5075369;28;19924;-80
2023/09/29 10:08:19;;;;;;;;;;;;;;;;;;5082053;28;19973;-65
2023/09/29 10:10:46;;;;;;;;;;;;;;;;;;5083235;28;19924;-80
2023/09/29 10:13:16;;;;;;;;;;;;;;;;;;5089027;28;19924;-78
2023/09/29 10:15:43;;;;;;;;;;;;;;;;;;5089615;28;20275;-79
2023/09/29 10:18:10;;;;;;;;;;;;;;;;;;5081311;28;20399;-79
2023/09/29 10:20:37;;;;;;;;;;;;;;;;;;5083445;28;19963;-78
2023/09/29 10:23:06;;;;;;;;;;;;;;;;;;5087064;28;19924;-79
2023/09/29 10:25:33;;;;;;;;;;;;;;;;;;5081256;28;19924;-79
2023/09/29 10:28:00;;;;;;;;;;;;;;;;;;5084091;28;19929;-79
2023/09/29 10:30:27;;;;;;;;;;;;;;;;;;5088141;28;19924;-78
2023/09/29 10:32:54;;;;;;;;;;;;;;;;;;5088205;28;19936;-79
2023/09/29 10:35:22;;;;;;;;;;;;;;;;;;5075036;28;19928;-78
2023/09/29 10:37:54;;;;;;;;;;;;;;;;;;5087170;28;20370;-79
2023/09/29 10:40:22;;;;;;;;;;;;;;;;;;5089058;28;20431;-79
2023/09/29 10:42:54;;;;;;;;;;;;;;;;;;5079940;28;19946;-80
2023/09/29 10:45:21;;;;;;;;;;;;;;;;;;5086009;28;19977;-80
2023/09/29 10:47:48;;;;;;;;;;;;;;;;;;5076905;28;19928;-80
2023/09/29 10:50:16;;;;;;;;;;;;;;;;;;5075861;28;19925;-80
2023/09/29 10:52:43;;;;;;;;;;;;;;;;;;5094148;28;19930;-80
2023/09/29 10:55:10;;;;;;;;;;;;;;;;;;5093249;28;19931;-79
2023/09/29 10:57:37;;;;;;;;;;;;;;;;;;5086724;28;19924;-80
2023/09/29 11:00:05;;;;;;;;;;;;;;;;;;5089303;28;19931;-80
2023/09/29 11:02:32;;;;;;;;;;;;;;;;;;5085424;28;20011;-80
2023/09/29 11:04:59;;;;;;;;;;;;;;;;;;5076783;28;19932;-80
2023/09/29 11:07:29;;;;;;;;;;;;;;;;;;5095336;28;19924;-80
2023/09/29 11:09:59;;;;;;;;;;;;;;;;;;5088236;28;19940;-80
2023/09/29 11:12:28;;;;;;;;;;;;;;;;;;5088667;28;19979;-80
2023/09/29 11:14:56;;;;;;;;;;;;;;;;;;5082438;28;19973;-79
2023/09/29 11:17:24;;;;;;;;;;;;;;;;;;5076280;28;19924;-80
2023/09/29 11:19:51;;;;;;;;;;;;;;;;;;5078181;28;19970;-80
2023/09/29 11:22:18;;;;;;;;;;;;;;;;;;5083311;28;19971;-81
2023/09/29 11:24:48;;;;;;;;;;;;;;;;;;5084149;28;20555;-80
2023/09/29 11:27:15;;;;;;;;;;;;;;;;;;5080934;28;20024;-79
2023/09/29 11:29:43;;;;;;;;;;;;;;;;;;5076211;28;19970;-80
2023/09/29 11:32:10;;;;;;;;;;;;;;;;;;5083482;28;19951;-80
2023/09/29 11:34:37;;;;;;;;;;;;;;;;;;5091637;28;20015;-79
2023/09/29 11:37:05;;;;;;;;;;;;;;;;;;5094888;28;19985;-80
2023/09/29 11:39:32;;;;;;;;;;;;;;;;;;5087342;28;19971;-80
2023/09/29 11:41:59;;;;;;;;;;;;;;;;;;5089128;28;19924;-81
2023/09/29 11:44:26;;;;;;;;;;;;;;;;;;5093001;28;19924;-81
2023/09/29 11:46:53;;;;;;;;;;;;;;;;;;5078048;28;19936;-81
2023/09/29 11:49:20;;;;;;;;;;;;;;;;;;5078735;28;20384;-79
2023/09/29 11:51:52;;;;;;;;;;;;;;;;;;5088809;28;20375;-80
2023/09/29 11:54:19;;;;;;;;;;;;;;;;;;5090077;28;19924;-80
2023/09/29 11:56:46;;;;;;;;;;;;;;;;;;5083852;28;19970;-80
2023/09/29 11:59:13;;;;;;;;;;;;;;;;;;5098250;28;19969;-81
2023/09/29 12:01:40;;;;;;;;;;;;;;;;;;5081826;28;19924;-81
2023/09/29 12:04:07;;;;;;;;;;;;;;;;;;5083729;28;19924;-81
2023/09/29 12:06:35;;;;;;;;;;;;;;;;;;5076823;28;19928;-79
2023/09/29 12:09:03;;;;;;;;;;;;;;;;;;5090365;28;19924;-82
2023/09/29 12:11:30;;;;;;;;;;;;;;;;;;5083726;28;20620;-82
2023/09/29 12:13:57;;;;;;;;;;;;;;;;;;5081080;28;19970;-81
2023/09/29 12:16:24;;;;;;;;;;;;;;;;;;5078550;28;19929;-82
2023/09/29 12:18:51;;;;;;;;;;;;;;;;;;5078108;28;19924;-82
2023/09/29 12:21:18;;;;;;;;;;;;;;;;;;5086286;28;20438;-80
2023/09/29 12:23:45;;;;;;;;;;;;;;;;;;5079046;28;19931;-81
2023/09/29 12:26:12;;;;;;;;;;;;;;;;;;5092820;28;19924;-80
2023/09/29 12:28:40;;;;;;;;;;;;;;;;;;5080621;28;19924;-82
2023/09/29 12:31:07;;;;;;;;;;;;;;;;;;5082990;28;19931;-82
2023/09/29 12:33:34;;;;;;;;;;;;;;;;;;5088639;28;20303;-82
2023/09/29 12:36:01;;;;;;;;;;;;;;;;;;5076031;28;19924;-82
2023/09/29 12:38:28;;;;;;;;;;;;;;;;;;5073977;28;19925;-81
2023/09/29 12:40:55;;;;;;;;;;;;;;;;;;5083549;28;19924;-82
2023/09/29 12:43:23;;;;;;;;;;;;;;;;;;5075661;28;19930;-81
2023/09/29 12:45:50;;;;;;;;;;;;;;;;;;5073194;28;19978;-81
2023/09/29 12:48:17;;;;;;;;;;;;;;;;;;5074146;28;19951;-81
2023/09/29 12:50:44;;;;;;;;;;;;;;;;;;5073515;28;19988;-80
2023/09/29 12:53:11;;;;;;;;;;;;;;;;;;5085944;28;19996;-82
2023/09/29 12:55:38;;;;;;;;;;;;;;;;;;5098943;28;19924;-80
2023/09/29 12:58:05;;;;;;;;;;;;;;;;;;5071885;28;19985;-79
2023/09/29 13:00:34;;;;;;;;;;;;;;;;;;5072758;28;20410;-79
2023/09/29 13:03:04;;;;;;;;;;;;;;;;;;5074791;28;19924;-79
2023/09/29 13:05:31;;;;;;;;;;;;;;;;;;5087834;28;20421;-78
2023/09/29 13:07:58;;;;;;;;;;;;;;;;;;5092473;28;19970;-78
2023/09/29 13:10:26;;;;;;;;;;;;;;;;;;5078440;28;19928;-78
2023/09/29 13:12:54;;;;;;;;;;;;;;;;;;5085058;28;19931;-80
2023/09/29 13:15:22;;;;;;;;;;;;;;;;;;5077937;28;20007;-79
2023/09/29 13:17:49;;;;;;;;;;;;;;;;;;5080061;28;20629;-80
2023/09/29 13:20:16;;;;;;;;;;;;;;;;;;5072500;28;19931;-79
2023/09/29 13:22:43;;;;;;;;;;;;;;;;;;5075242;28;19928;-78
2023/09/29 13:25:10;;;;;;;;;;;;;;;;;;5074409;28;20379;-77
2023/09/29 13:27:37;;;;;;;;;;;;;;;;;;5078060;28;19932;-81
2023/09/29 13:30:04;;;;;;;;;;;;;;;;;;5077046;28;19928;-81
2023/09/29 13:32:31;;;;;;;;;;;;;;;;;;5088794;28;19924;-79
2023/09/29 13:34:58;;;;;;;;;;;;;;;;;;5085977;28;19928;-79
2023/09/29 13:37:25;;;;;;;;;;;;;;;;;;5076196;28;19974;-78
2023/09/29 13:39:56;;;;;;;;;;;;;;;;;;5090230;28;19986;-80
2023/09/29 13:42:23;;;;;;;;;;;;;;;;;;5090555;28;19969;-79
2023/09/29 13:44:50;;;;;;;;;;;;;;;;;;5079951;28;19924;-81
2023/09/29 13:47:17;;;;;;;;;;;;;;;;;;5087716;28;19931;-80
2023/09/29 13:49:44;;;;;;;;;;;;;;;;;;5084483;28;19925;-79
2023/09/29 13:52:12;;;;;;;;;;;;;;;;;;5088378;28;19924;-81
2023/09/29 13:54:39;;;;;;;;;;;;;;;;;;5089376;28;20442;-81
2023/09/29 13:57:06;;;;;;;;;;;;;;;;;;5085907;28;19928;-82
2023/09/29 13:59:33;;;;;;;;;;;;;;;;;;5077084;28;19944;-82
2023/09/29 14:02:07;;;;;;;;;;;;;;;;;;5078799;28;19931;-80
2023/09/29 14:04:34;;;;;;;;;;;;;;;;;;5084659;28;20394;-81
2023/09/29 14:07:01;;;;;;;;;;;;;;;;;;5092954;28;19928;-81
2023/09/29 14:09:28;;;;;;;;;;;;;;;;;;5076010;28;20019;-79
2023/09/29 14:11:55;;;;;;;;;;;;;;;;;;5082864;28;19985;-82
2023/09/29 14:14:22;;;;;;;;;;;;;;;;;;5083020;28;19964;-82
2023/09/29 14:16:50;;;;;;;;;;;;;;;;;;5071332;28;20011;-77
2023/09/29 14:19:17;;;;;;;;;;;;;;;;;;5072460;28;19970;-82
2023/09/29 14:21:44;;;;;;;;;;;;;;;;;;5073494;28;19925;-78
2023/09/29 14:24:11;;;;;;;;;;;;;;;;;;5078967;28;20413;-80
2023/09/29 14:26:39;;;;;;;;;;;;;;;;;;5082823;28;20311;-79
2023/09/29 14:29:06;;;;;;;;;;;;;;;;;;5086770;28;19999;-81
2023/09/29 14:31:35;;;;;;;;;;;;;;;;;;5089329;28;19940;-77
2023/09/29 14:34:02;;;;;;;;;;;;;;;;;;5082726;28;20403;-81
2023/09/29 14:36:33;;;;;;;;;;;;;;;;;;5095452;28;19985;-76
2023/09/29 14:39:00;;;;;;;;;;;;;;;;;;5081977;28;20015;-81
2023/09/29 14:41:27;;;;;;;;;;;;;;;;;;5089198;28;19990;-81
2023/09/29 14:43:55;;;;;;;;;;;;;;;;;;5076924;28;19989;-82
2023/09/29 14:46:22;;;;;;;;;;;;;;;;;;5080512;28;20396;-76
2023/09/29 14:48:50;;;;;;;;;;;;;;;;;;5077899;28;19982;-76
2023/09/29 14:51:17;;;;;;;;;;;;;;;;;;5081866;28;19932;-77
2023/09/29 14:53:44;;;;;;;;;;;;;;;;;;5080398;28;19940;-78
2023/09/29 14:56:12;;;;;;;;;;;;;;;;;;5083021;28;19994;-76
2023/09/29 14:58:39;;;;;;;;;;;;;;;;;;5080255;28;19975;-76
2023/09/29 15:01:06;;;;;;;;;;;;;;;;;;5079129;28;19928;-76
2023/09/29 15:03:33;;;;;;;;;;;;;;;;;;5087906;28;19925;-77
2023/09/29 15:06:00;;;;;;;;;;;;;;;;;;5084915;28;19928;-76
2023/09/29 15:08:28;;;;;;;;;;;;;;;;;;5089375;28;19925;-76
2023/09/29 15:10:55;;;;;;;;;;;;;;;;;;5075085;28;19932;-76
2023/09/29 15:13:22;;;;;;;;;;;;;;;;;;5088751;28;19977;-77
2023/09/29 15:15:49;;;;;;;;;;;;;;;;;;5089895;28;20272;-77
2023/09/29 15:18:20;;;;;;;;;;;;;;;;;;5082131;28;20444;-75
2023/09/29 15:20:48;;;;;;;;;;;;;;;;;;5087816;28;20375;-76
2023/09/29 15:23:15;;;;;;;;;;;;;;;;;;5094933;28;19924;-76
2023/09/29 15:25:43;;;;;;;;;;;;;;;;;;5080117;28;20451;-76
2023/09/29 15:28:11;;;;;;;;;;;;;;;;;;5092367;28;20458;-75
2023/09/29 15:30:38;;;;;;;;;;;;;;;;;;5078064;28;19932;-76
2023/09/29 15:33:05;;;;;;;;;;;;;;;;;;5083243;28;19924;-76
2023/09/29 15:35:33;;;;;;;;;;;;;;;;;;5074722;28;20382;-76
2023/09/29 15:38:00;;;;;;;;;;;;;;;;;;5074124;28;19977;-77
2023/09/29 15:40:27;;;;;;;;;;;;;;;;;;5074942;28;19924;-76
2023/09/29 15:42:54;;;;;;;;;;;;;;;;;;5085515;28;19924;-77
2023/09/29 15:45:21;;;;;;;;;;;;;;;;;;5090632;28;19968;-76
2023/09/29 15:47:49;;;;;;;;;;;;;;;;;;5085145;28;19925;-76
2023/09/29 15:50:16;;;;;;;;;;;;;;;;;;5081947;28;19924;-76
2023/09/29 15:52:44;;;;;;;;;;;;;;;;;;5083474;28;19928;-75
2023/09/29 15:55:11;;;;;;;;;;;;;;;;;;5092416;28;19932;-76
2023/09/29 15:57:39;;;;;;;;;;;;;;;;;;5085393;28;19925;-80
2023/09/29 16:00:07;;;;;;;;;;;;;;;;;;5077053;28;20516;-80
2023/09/29 16:02:34;;;;;;;;;;;;;;;;;;5085980;28;19979;-80
2023/09/29 16:05:01;;;;;;;;;;;;;;;;;;5072880;28;20437;-80
2023/09/29 16:07:28;;;;;;;;;;;;;;;;;;5077671;28;19939;-78
2023/09/29 16:09:55;;;;;;;;;;;;;;;;;;5074551;28;20451;-80
2023/09/29 16:12:22;;;;;;;;;;;;;;;;;;5090681;28;19932;-79
2023/09/29 16:14:49;;;;;;;;;;;;;;;;;;5083571;28;20471;-79
2023/09/29 16:17:16;;;;;;;;;;;;;;;;;;5081570;28;19928;-81
2023/09/29 16:19:43;;;;;;;;;;;;;;;;;;5090428;28;19935;-77
2023/09/29 16:22:10;;;;;;;;;;;;;;;;;;5082555;28;19928;-79
2023/09/29 16:24:39;;;;;;;;;;;;;;;;;;5081376;28;20436;-76
2023/09/29 16:27:06;;;;;;;;;;;;;;;;;;5080413;28;20023;-78
2023/09/29 16:29:33;;;;;;;;;;;;;;;;;;5079671;28;19932;-78
2023/09/29 16:32:00;;;;;;;;;;;;;;;;;;5090211;28;19924;-77
2023/09/29 16:34:27;;;;;;;;;;;;;;;;;;5089953;28;19969;-77
2023/09/29 16:36:54;;;;;;;;;;;;;;;;;;5089833;28;20985;-76
2023/09/29 16:39:21;;;;;;;;;;;;;;;;;;5084323;28;19944;-77
2023/09/29 16:41:48;;;;;;;;;;;;;;;;;;5084615;28;19946;-78
2023/09/29 16:44:16;;;;;;;;;;;;;;;;;;5091512;28;19954;-78
2023/09/29 16:46:47;;;;;;;;;;;;;;;;;;5080708;28;19931;-74